Time;durP1;ratioP1;P1;durP2;ratioP2;P2;SDS_P1;SDS_P2;PMS_P1;PMS_P2;Temp;Humidity;BMP_temperature;BMP_pressure;BME280_temperature;BME280_humidity;BME280_pressure;Samples;Min_cycle;Max_cycle;Signal;HPM_P1;HPM_P2
2023/06/01 00:00:24;;;;;;;;;;;23.70;39.20;;;;;;1551615;74;745;-67
2023/06/01 00:02:26;;;;;;;;;;;23.70;39.20;;;;;;1565282;75;722;-67
2023/06/01 00:04:28;;;;;;;;;;;23.70;39.30;;;;;;1567572;75;726;-67
2023/06/01 00:06:31;;;;;;;;;;;23.70;39.20;;;;;;1565541;74;1479;-67
2023/06/01 00:08:33;;;;;;;;;;;23.80;39.30;;;;;;1565217;74;1304;-67
2023/06/01 00:10:35;;;;;;;;;;;23.80;39.20;;;;;;1560644;75;1946;-66
2023/06/01 00:12:37;;;;;;;;;;;23.80;39.50;;;;;;1564209;74;746;-68
2023/06/01 00:14:39;;;;;;;;;;;23.80;39.50;;;;;;1560603;75;672;-66
2023/06/01 00:16:42;;;;;;;;;;;23.80;39.40;;;;;;1564479;75;814;-66
2023/06/01 00:18:44;;;;;;;;;;;23.80;39.70;;;;;;1558898;75;1137;-66
2023/06/01 00:22:48;;;;;;;;;;;23.70;39.70;;;;;;1598708;72;567;-66
2023/06/01 00:24:50;;;;;;;;;;;23.70;39.90;;;;;;1588714;74;722;-66
2023/06/01 00:26:52;;;;;;;;;;;23.70;40.00;;;;;;1588282;74;1213;-66
2023/06/01 00:28:54;;;;;;;;;;;23.70;40.00;;;;;;1588330;73;709;-67
2023/06/01 00:30:56;;;;;;;;;;;23.70;40.10;;;;;;1519149;76;858;-67
2023/06/01 00:32:58;;;;;;;;;;;23.70;40.00;;;;;;1530234;76;753;-68
2023/06/01 00:35:00;;;;;;;;;;;23.80;39.90;;;;;;1525478;76;1595;-66
2023/06/01 00:37:02;;;;;;;;;;;23.80;40.20;;;;;;1538892;74;1151;-66
2023/06/01 00:39:04;;;;;;;;;;;23.70;40.30;;;;;;1536868;76;746;-66
2023/06/01 00:41:05;;;;;;;;;;;23.80;40.10;;;;;;1528017;76;1918;-66
2023/06/01 00:43:07;;;;;;;;;;;23.80;40.00;;;;;;1532015;76;733;-66
2023/06/01 00:45:10;;;;;;;;;;;23.70;40.30;;;;;;1530608;76;719;-66
2023/06/01 00:47:12;;;;;;;;;;;23.70;40.50;;;;;;1532633;76;1118;-66
2023/06/01 00:49:13;;;;;;;;;;;23.60;40.50;;;;;;1517905;76;1451;-66
2023/06/01 00:51:15;;;;;;;;;;;23.60;40.60;;;;;;1520254;76;879;-67
2023/06/01 00:53:18;;;;;;;;;;;23.60;40.60;;;;;;1531425;76;749;-66
2023/06/01 00:55:21;;;;;;;;;;;23.60;40.60;;;;;;1535389;76;686;-66
2023/06/01 00:57:26;;;;;;;;;;;23.60;40.60;;;;;;1539132;76;1133;-64
2023/06/01 00:59:26;;;;;;;;;;;23.60;40.50;;;;;;1550158;75;1682;-65
2023/06/01 01:01:28;;;;;;;;;;;23.70;40.60;;;;;;1545924;75;1926;-65
2023/06/01 01:03:31;;;;;;;;;;;23.70;40.50;;;;;;1551618;75;781;-65
2023/06/01 01:05:33;;;;;;;;;;;23.70;40.40;;;;;;1532745;76;775;-66
2023/06/01 01:07:47;;;;;;;;;;;23.70;40.50;;;;;;1544960;74;1179;-65
2023/06/01 01:09:57;;;;;;;;;;;23.70;40.40;;;;;;1535339;76;1918;-66
2023/06/01 01:12:07;;;;;;;;;;;23.70;40.40;;;;;;1543962;76;1828;-65
2023/06/01 01:14:10;;;;;;;;;;;23.70;40.30;;;;;;1540590;76;1725;-66
2023/06/01 01:16:14;;;;;;;;;;;23.70;40.10;;;;;;1545916;76;1539;-65
2023/06/01 01:18:19;;;;;;;;;;;23.70;40.00;;;;;;1537035;76;1175;-65
2023/06/01 01:20:28;;;;;;;;;;;23.70;40.20;;;;;;1543287;76;931;-65
2023/06/01 01:22:34;;;;;;;;;;;23.70;40.20;;;;;;1532210;76;1944;-65
2023/06/01 01:24:53;;;;;;;;;;;23.70;40.20;;;;;;1538368;76;1862;-65
2023/06/01 01:27:14;;;;;;;;;;;23.70;40.20;;;;;;1531370;76;1201;-65
2023/06/01 01:29:15;;;;;;;;;;;23.70;40.30;;;;;;1526550;76;736;-66
2023/06/01 01:31:18;;;;;;;;;;;23.70;40.20;;;;;;1531748;76;1536;-66
2023/06/01 01:33:20;;;;;;;;;;;23.70;40.50;;;;;;1529948;76;701;-65
2023/06/01 01:35:23;;;;;;;;;;;23.60;40.40;;;;;;1544292;76;805;-66
2023/06/01 01:37:25;;;;;;;;;;;23.70;40.50;;;;;;1536033;76;1150;-65
2023/06/01 01:39:27;;;;;;;;;;;23.70;40.20;;;;;;1538859;76;716;-66
2023/06/01 01:41:29;;;;;;;;;;;23.70;40.00;;;;;;1527327;76;1946;-66
2023/06/01 01:43:31;;;;;;;;;;;23.70;40.00;;;;;;1541800;76;725;-66
2023/06/01 01:45:33;;;;;;;;;;;23.70;39.90;;;;;;1534339;76;1531;-66
2023/06/01 01:47:35;;;;;;;;;;;23.70;39.90;;;;;;1531364;76;1130;-66
2023/06/01 01:49:44;;;;;;;;;;;23.80;39.80;;;;;;1539026;76;725;-66
2023/06/01 01:52:02;;;;;;;;;;;23.70;39.80;;;;;;1534292;76;751;-65
2023/06/01 01:54:06;;;;;;;;;;;23.70;39.80;;;;;;1540003;76;2101;-66
2023/06/01 01:56:07;;;;;;;;;;;23.70;39.90;;;;;;1534263;76;712;-66
2023/06/01 01:58:09;;;;;;;;;;;23.80;40.00;;;;;;1539729;76;1517;-66
2023/06/01 02:00:12;;;;;;;;;;;23.70;40.00;;;;;;1534046;76;729;-66
2023/06/01 02:02:14;;;;;;;;;;;23.70;39.90;;;;;;1529373;76;1919;-66
2023/06/01 02:04:16;;;;;;;;;;;23.70;39.90;;;;;;1546487;76;703;-66
2023/06/01 02:06:18;;;;;;;;;;;23.70;40.00;;;;;;1540215;76;742;-66
2023/06/01 02:08:20;;;;;;;;;;;23.70;40.00;;;;;;1532518;76;1151;-65
2023/06/01 02:10:22;;;;;;;;;;;23.70;40.10;;;;;;1533291;76;676;-65
2023/06/01 02:12:23;;;;;;;;;;;23.70;40.00;;;;;;1533833;76;1524;-65
2023/06/01 02:14:25;;;;;;;;;;;23.70;40.00;;;;;;1529155;76;822;-65
2023/06/01 02:16:27;;;;;;;;;;;23.70;40.20;;;;;;1533835;76;787;-65
2023/06/01 02:18:29;;;;;;;;;;;23.70;40.10;;;;;;1531353;76;1107;-65
2023/06/01 02:20:31;;;;;;;;;;;23.70;40.10;;;;;;1535556;76;816;-65
2023/06/01 02:22:33;;;;;;;;;;;23.70;40.00;;;;;;1546355;76;1937;-65
2023/06/01 02:24:35;;;;;;;;;;;23.70;40.10;;;;;;1539224;76;782;-65
2023/06/01 02:26:37;;;;;;;;;;;23.70;40.20;;;;;;1542162;76;1449;-65
2023/06/01 02:28:40;;;;;;;;;;;23.70;40.00;;;;;;1540071;76;1110;-65
2023/06/01 02:30:42;;;;;;;;;;;23.70;40.00;;;;;;1546947;76;1030;-66
2023/06/01 02:32:48;;;;;;;;;;;23.70;40.00;;;;;;1560394;76;836;-66
2023/06/01 02:34:50;;;;;;;;;;;23.70;40.00;;;;;;1550659;76;711;-66
2023/06/01 02:36:55;;;;;;;;;;;23.70;40.00;;;;;;1549458;76;1132;-66
2023/06/01 02:38:58;;;;;;;;;;;23.70;40.10;;;;;;1544135;76;1694;-66
2023/06/01 02:41:00;;;;;;;;;;;23.70;40.10;;;;;;1549234;76;1519;-66
2023/06/01 02:43:02;;;;;;;;;;;23.70;40.10;;;;;;1542813;76;1928;-66
2023/06/01 02:45:05;;;;;;;;;;;23.70;40.00;;;;;;1538492;76;692;-66
2023/06/01 02:47:07;;;;;;;;;;;23.70;40.00;;;;;;1538314;76;1114;-66
2023/06/01 02:49:09;;;;;;;;;;;23.70;40.20;;;;;;1555146;76;720;-66
2023/06/01 02:51:11;;;;;;;;;;;23.70;40.20;;;;;;1554967;76;704;-66
2023/06/01 02:53:13;;;;;;;;;;;23.70;40.20;;;;;;1553810;76;800;-66
2023/06/01 02:55:15;;;;;;;;;;;23.70;40.20;;;;;;1549215;76;1574;-66
2023/06/01 02:57:17;;;;;;;;;;;23.70;40.20;;;;;;1541822;76;1150;-66
2023/06/01 02:59:19;;;;;;;;;;;23.70;40.10;;;;;;1552879;76;754;-66
2023/06/01 03:01:21;;;;;;;;;;;23.70;40.10;;;;;;1545310;76;745;-67
2023/06/01 03:03:23;;;;;;;;;;;23.70;40.10;;;;;;1550215;76;1922;-66
2023/06/01 03:05:25;;;;;;;;;;;23.70;40.10;;;;;;1546786;76;755;-66
2023/06/01 03:07:27;;;;;;;;;;;23.70;40.10;;;;;;1541952;76;1189;-67
2023/06/01 03:09:29;;;;;;;;;;;23.80;40.10;;;;;;1550310;76;1563;-65
2023/06/01 03:11:31;;;;;;;;;;;23.70;40.30;;;;;;1533920;76;740;-65
2023/06/01 03:13:33;;;;;;;;;;;23.70;40.30;;;;;;1546744;76;818;-66
2023/06/01 03:15:37;;;;;;;;;;;23.80;40.50;;;;;;1546255;76;784;-65
2023/06/01 03:17:38;;;;;;;;;;;23.80;40.50;;;;;;1544014;76;1357;-65
2023/06/01 03:19:40;;;;;;;;;;;23.70;40.60;;;;;;1553902;76;773;-65
2023/06/01 03:21:42;;;;;;;;;;;23.70;40.70;;;;;;1540943;76;704;-65
2023/06/01 03:23:44;;;;;;;;;;;23.70;40.60;;;;;;1531821;76;1916;-65
2023/06/01 03:25:46;;;;;;;;;;;23.70;40.70;;;;;;1549680;76;785;-65
2023/06/01 03:27:48;;;;;;;;;;;23.80;40.70;;;;;;1534441;76;1175;-65
2023/06/01 03:29:50;;;;;;;;;;;23.70;40.60;;;;;;1550055;76;733;-65
2023/06/01 03:31:52;;;;;;;;;;;23.70;40.50;;;;;;1536913;76;770;-65
2023/06/01 03:33:53;;;;;;;;;;;23.80;40.60;;;;;;1537657;76;784;-65
2023/06/01 03:35:56;;;;;;;;;;;23.80;40.60;;;;;;1541863;76;746;-66
2023/06/01 03:37:58;;;;;;;;;;;23.70;40.80;;;;;;1530314;76;1268;-66
2023/06/01 03:40:00;;;;;;;;;;;23.70;40.70;;;;;;1529158;76;747;-66
2023/06/01 03:42:02;;;;;;;;;;;23.80;40.90;;;;;;1541278;76;1924;-66
2023/06/01 03:44:04;;;;;;;;;;;23.70;41.00;;;;;;1539000;76;724;-67
2023/06/01 03:46:06;;;;;;;;;;;23.70;41.00;;;;;;1535953;76;679;-67
2023/06/01 03:48:08;;;;;;;;;;;23.70;41.20;;;;;;1529169;76;1130;-68
2023/06/01 03:50:10;;;;;;;;;;;23.70;41.30;;;;;;1535159;76;776;-67
2023/06/01 03:52:12;;;;;;;;;;;23.70;41.20;;;;;;1527114;76;1761;-69
2023/06/01 03:54:14;;;;;;;;;;;23.70;41.10;;;;;;1537463;76;656;-64
2023/06/01 03:56:16;;;;;;;;;;;23.70;41.00;;;;;;1538253;76;770;-65
2023/06/01 03:58:19;;;;;;;;;;;23.70;41.10;;;;;;1544034;76;1142;-66
2023/06/01 04:00:22;;;;;;;;;;;23.70;41.00;;;;;;1525979;76;722;-65
2023/06/01 04:02:26;;;;;;;;;;;23.70;41.10;;;;;;1526226;76;1922;-65
2023/06/01 04:04:29;;;;;;;;;;;23.70;41.00;;;;;;1532396;76;1524;-65
2023/06/01 04:06:35;;;;;;;;;;;23.70;40.90;;;;;;1533574;76;752;-65
2023/06/01 04:08:35;;;;;;;;;;;23.70;40.80;;;;;;1538018;76;1968;-65
2023/06/01 04:10:37;;;;;;;;;;;23.70;40.70;;;;;;1534570;76;1057;-65
2023/06/01 04:12:39;;;;;;;;;;;23.70;40.60;;;;;;1531411;76;719;-66
2023/06/01 04:14:41;;;;;;;;;;;23.80;40.70;;;;;;1526377;76;765;-66
2023/06/01 04:16:42;;;;;;;;;;;23.80;40.70;;;;;;1543343;76;728;-67
2023/06/01 04:18:44;;;;;;;;;;;23.80;40.70;;;;;;1535013;76;1564;-66
2023/06/01 04:20:48;;;;;;;;;;;23.70;40.70;;;;;;1539620;76;739;-65
2023/06/01 04:22:50;;;;;;;;;;;23.80;40.60;;;;;;1538432;76;1921;-66
2023/06/01 04:24:52;;;;;;;;;;;23.70;40.70;;;;;;1542677;76;1088;-65
2023/06/01 04:26:56;;;;;;;;;;;23.70;40.70;;;;;;1533732;76;1271;-66
2023/06/01 04:28:57;;;;;;;;;;;23.90;40.70;;;;;;1546376;76;1524;-66
2023/06/01 04:31:00;;;;;;;;;;;23.80;40.70;;;;;;1535613;76;756;-66
2023/06/01 04:33:02;;;;;;;;;;;23.70;40.70;;;;;;1544419;76;1505;-67
2023/06/01 04:35:07;;;;;;;;;;;23.80;40.70;;;;;;1534050;76;766;-66
2023/06/01 04:37:10;;;;;;;;;;;23.80;40.70;;;;;;1544807;76;1152;-66
2023/06/01 04:39:12;;;;;;;;;;;23.90;40.80;;;;;;1534957;76;781;-65
2023/06/01 04:41:15;;;;;;;;;;;23.70;40.80;;;;;;1532762;76;811;-66
2023/06/01 04:43:18;;;;;;;;;;;23.90;40.90;;;;;;1525765;76;1932;-62
2023/06/01 04:45:20;;;;;;;;;;;23.70;40.70;;;;;;1536012;76;729;-64
2023/06/01 04:47:22;;;;;;;;;;;23.80;40.80;;;;;;1533756;76;1583;-66
2023/06/01 04:49:25;;;;;;;;;;;23.80;41.00;;;;;;1539215;76;703;-65
2023/06/01 04:51:28;;;;;;;;;;;23.70;41.00;;;;;;1537396;76;795;-65
2023/06/01 04:53:30;;;;;;;;;;;23.70;41.40;;;;;;1537463;76;711;-65
2023/06/01 04:55:32;;;;;;;;;;;23.80;41.40;;;;;;1541184;76;757;-65
2023/06/01 04:57:35;;;;;;;;;;;23.80;41.30;;;;;;1529773;76;1124;-64
2023/06/01 04:59:37;;;;;;;;;;;23.90;41.40;;;;;;1530010;76;717;-63
2023/06/01 05:01:39;;;;;;;;;;;23.90;41.70;;;;;;1535427;76;1326;-64
2023/06/01 05:03:42;;;;;;;;;;;23.80;42.10;;;;;;1535139;76;1933;-65
2023/06/01 05:05:44;;;;;;;;;;;23.80;42.00;;;;;;1530258;76;1081;-65
2023/06/01 05:07:46;;;;;;;;;;;23.80;42.30;;;;;;1533794;76;1324;-65
2023/06/01 05:09:48;;;;;;;;;;;23.80;42.00;;;;;;1532820;76;1277;-64
2023/06/01 05:11:50;;;;;;;;;;;23.90;41.80;;;;;;1534571;76;1331;-65
2023/06/01 05:13:52;;;;;;;;;;;23.80;41.80;;;;;;1541640;76;1225;-65
2023/06/01 05:15:54;;;;;;;;;;;23.90;41.90;;;;;;1548144;76;1524;-65
2023/06/01 05:17:56;;;;;;;;;;;23.90;41.80;;;;;;1552626;76;1306;-65
2023/06/01 05:19:58;;;;;;;;;;;23.90;41.70;;;;;;1539760;76;1407;-65
2023/06/01 05:22:00;;;;;;;;;;;23.90;41.70;;;;;;1531182;76;1079;-65
2023/06/01 05:24:02;;;;;;;;;;;24.00;41.60;;;;;;1540986;76;1925;-65
2023/06/01 05:26:04;;;;;;;;;;;23.90;41.50;;;;;;1536167;76;1261;-65
2023/06/01 05:28:06;;;;;;;;;;;23.90;41.50;;;;;;1534704;76;1377;-65
2023/06/01 05:30:08;;;;;;;;;;;23.90;41.50;;;;;;1537237;76;1539;-65
2023/06/01 05:32:10;;;;;;;;;;;23.90;41.40;;;;;;1533488;76;1326;-65
2023/06/01 05:34:13;;;;;;;;;;;23.90;41.40;;;;;;1540883;76;1312;-65
2023/06/01 05:36:15;;;;;;;;;;;24.00;41.40;;;;;;1543752;76;1315;-66
2023/06/01 05:38:17;;;;;;;;;;;24.00;41.40;;;;;;1532051;76;1396;-65
2023/06/01 05:40:19;;;;;;;;;;;23.90;41.40;;;;;;1535214;76;1407;-65
2023/06/01 05:42:21;;;;;;;;;;;23.90;41.40;;;;;;1536531;76;1272;-65
2023/06/01 05:44:23;;;;;;;;;;;23.90;41.30;;;;;;1539618;76;1925;-65
2023/06/01 05:46:25;;;;;;;;;;;24.00;41.30;;;;;;1537429;76;1362;-65
2023/06/01 05:48:27;;;;;;;;;;;23.90;41.30;;;;;;1534347;76;1576;-65
2023/06/01 05:50:29;;;;;;;;;;;23.90;41.30;;;;;;1538808;76;1311;-65
2023/06/01 05:52:31;;;;;;;;;;;23.90;41.30;;;;;;1545064;76;1321;-65
2023/06/01 05:54:33;;;;;;;;;;;23.90;41.30;;;;;;1544913;76;1260;-65
2023/06/01 05:56:37;;;;;;;;;;;23.80;41.20;;;;;;1538872;76;1315;-65
2023/06/01 05:58:38;;;;;;;;;;;23.80;41.20;;;;;;1529531;76;1587;-65
2023/06/01 06:00:40;;;;;;;;;;;23.80;41.20;;;;;;1529722;77;1058;-65
2023/06/01 06:02:43;;;;;;;;;;;23.80;41.20;;;;;;1526685;76;1119;-65
2023/06/01 06:04:45;;;;;;;;;;;23.80;41.10;;;;;;1523373;76;1404;-65
2023/06/01 06:06:47;;;;;;;;;;;23.80;41.10;;;;;;1530972;76;1313;-65
2023/06/01 06:08:49;;;;;;;;;;;23.70;41.10;;;;;;1526252;76;1273;-65
2023/06/01 06:10:51;;;;;;;;;;;23.80;41.00;;;;;;1532935;76;1244;-65
2023/06/01 06:12:53;;;;;;;;;;;23.90;41.20;;;;;;1536896;76;1518;-65
2023/06/01 06:14:55;;;;;;;;;;;23.80;41.00;;;;;;1531989;76;1346;-65
2023/06/01 06:16:57;;;;;;;;;;;23.80;41.00;;;;;;1535355;76;1501;-65
2023/06/01 06:18:59;;;;;;;;;;;23.90;41.00;;;;;;1536239;76;1294;-65
2023/06/01 06:21:01;;;;;;;;;;;23.80;40.80;;;;;;1536719;76;1541;-65
2023/06/01 06:23:03;;;;;;;;;;;23.90;40.90;;;;;;1537389;76;1932;-64
2023/06/01 06:25:05;;;;;;;;;;;23.80;40.70;;;;;;1534894;76;1491;-64
2023/06/01 06:27:07;;;;;;;;;;;23.90;40.90;;;;;;1532094;76;1495;-65
2023/06/01 06:29:10;;;;;;;;;;;23.90;40.80;;;;;;1535870;76;1498;-63
2023/06/01 06:31:12;;;;;;;;;;;23.80;40.70;;;;;;1540626;76;1269;-64
2023/06/01 06:33:14;;;;;;;;;;;23.90;40.70;;;;;;1539992;75;1260;-64
2023/06/01 06:35:16;;;;;;;;;;;23.90;40.60;;;;;;1531306;77;1101;-64
2023/06/01 06:37:17;;;;;;;;;;;23.90;40.60;;;;;;1561215;75;1557;-65
2023/06/01 06:39:21;;;;;;;;;;;23.90;40.60;;;;;;1560584;75;1497;-64
2023/06/01 06:41:23;;;;;;;;;;;23.90;40.60;;;;;;1537461;76;1336;-65
2023/06/01 06:43:24;;;;;;;;;;;23.90;40.50;;;;;;1535788;76;1928;-64
2023/06/01 06:45:26;;;;;;;;;;;23.80;40.40;;;;;;1539964;76;1317;-64
2023/06/01 06:47:28;;;;;;;;;;;23.90;40.50;;;;;;1542279;76;1312;-65
2023/06/01 06:49:30;;;;;;;;;;;24.00;40.50;;;;;;1544296;76;1349;-64
2023/06/01 06:51:32;;;;;;;;;;;23.90;40.50;;;;;;1543564;76;1335;-64
2023/06/01 06:53:34;;;;;;;;;;;23.90;40.40;;;;;;1545292;75;1471;-64
2023/06/01 06:55:36;;;;;;;;;;;23.90;40.40;;;;;;1574004;75;1533;-64
2023/06/01 06:57:39;;;;;;;;;;;23.90;40.40;;;;;;1565841;75;1323;-64
2023/06/01 06:59:41;;;;;;;;;;;23.90;40.40;;;;;;1570203;75;1496;-64
2023/06/01 07:01:43;;;;;;;;;;;23.90;40.50;;;;;;1556320;75;1219;-64
2023/06/01 07:03:45;;;;;;;;;;;23.90;40.40;;;;;;1557685;75;1919;-64
2023/06/01 07:05:47;;;;;;;;;;;23.90;40.40;;;;;;1564431;75;1243;-64
2023/06/01 07:07:49;;;;;;;;;;;24.00;40.40;;;;;;1558093;75;1510;-64
2023/06/01 07:09:52;;;;;;;;;;;23.90;40.40;;;;;;1564632;75;1084;-64
2023/06/01 07:11:54;;;;;;;;;;;23.90;40.40;;;;;;1560398;75;1362;-64
2023/06/01 07:13:57;;;;;;;;;;;24.00;40.40;;;;;;1549947;75;1380;-65
2023/06/01 07:15:59;;;;;;;;;;;23.90;40.50;;;;;;1552318;75;1491;-65
2023/06/01 07:18:01;;;;;;;;;;;23.90;40.50;;;;;;1539096;76;1460;-65
2023/06/01 07:20:06;;;;;;;;;;;23.90;40.50;;;;;;1537063;76;1352;-65
2023/06/01 07:22:08;;;;;;;;;;;23.90;40.50;;;;;;1540979;75;1467;-65
2023/06/01 07:24:10;;;;;;;;;;;23.90;40.50;;;;;;1553069;75;1919;-65
2023/06/01 07:26:12;;;;;;;;;;;23.90;40.40;;;;;;1559932;75;1301;-65
2023/06/01 07:28:15;;;;;;;;;;;23.90;40.40;;;;;;1558952;75;1505;-65
2023/06/01 07:30:17;;;;;;;;;;;23.90;40.40;;;;;;1565687;75;998;-65
2023/06/01 07:32:19;;;;;;;;;;;24.00;40.40;;;;;;1564115;75;1433;-64
2023/06/01 07:34:21;;;;;;;;;;;23.90;40.40;;;;;;1565631;75;1252;-64
2023/06/01 07:36:23;;;;;;;;;;;23.90;40.40;;;;;;1552300;75;1493;-64
2023/06/01 07:38:25;;;;;;;;;;;23.90;40.30;;;;;;1552884;75;1515;-63
2023/06/01 07:40:28;;;;;;;;;;;24.00;40.40;;;;;;1555726;75;1249;-63
2023/06/01 07:42:30;;;;;;;;;;;24.00;40.40;;;;;;1548360;75;1065;-64
2023/06/01 07:44:31;;;;;;;;;;;24.00;40.30;;;;;;1559591;75;1954;-64
2023/06/01 07:46:33;;;;;;;;;;;23.90;40.40;;;;;;1558625;75;1337;-64
2023/06/01 07:48:38;;;;;;;;;;;24.00;40.40;;;;;;1549517;75;1377;-64
2023/06/01 07:50:40;;;;;;;;;;;24.00;40.40;;;;;;1551886;75;1478;-64
2023/06/01 07:52:42;;;;;;;;;;;23.90;40.30;;;;;;1563324;75;1345;-64
2023/06/01 07:54:44;;;;;;;;;;;24.00;40.40;;;;;;1553995;75;1333;-64
2023/06/01 07:56:47;;;;;;;;;;;24.00;40.40;;;;;;1539599;75;1273;-64
2023/06/01 07:58:49;;;;;;;;;;;24.00;40.40;;;;;;1547536;76;1516;-64
2023/06/01 08:00:52;;;;;;;;;;;24.00;40.40;;;;;;1534634;76;1351;-64
2023/06/01 08:02:53;;;;;;;;;;;24.00;40.40;;;;;;1533917;76;1380;-64
2023/06/01 08:04:56;;;;;;;;;;;24.00;40.40;;;;;;1558950;75;1950;-64
2023/06/01 08:06:58;;;;;;;;;;;23.90;40.40;;;;;;1566189;75;1285;-62
2023/06/01 08:09:00;;;;;;;;;;;24.00;40.40;;;;;;1560225;75;1309;-65
2023/06/01 08:11:02;;;;;;;;;;;24.00;40.50;;;;;;1568628;75;1315;-65
2023/06/01 08:13:04;;;;;;;;;;;24.00;40.40;;;;;;1562931;75;1223;-65
2023/06/01 08:15:06;;;;;;;;;;;24.00;40.40;;;;;;1570104;75;1192;-65
2023/06/01 08:17:11;;;;;;;;;;;24.00;40.40;;;;;;1562715;75;1161;-64
2023/06/01 08:19:12;;;;;;;;;;;24.00;40.40;;;;;;1572276;75;1547;-64
2023/06/01 08:21:13;;;;;;;;;;;24.00;40.30;;;;;;1567083;75;1414;-64
2023/06/01 08:23:22;;;;;;;;;;;24.00;40.40;;;;;;1556242;75;1501;-64
2023/06/01 08:25:22;;;;;;;;;;;24.00;40.40;;;;;;1554448;75;1916;-64
2023/06/01 08:27:24;;;;;;;;;;;24.00;40.30;;;;;;1549651;75;1316;-64
2023/06/01 08:29:27;;;;;;;;;;;24.00;40.40;;;;;;1563590;75;1327;-64
2023/06/01 08:31:29;;;;;;;;;;;24.00;40.40;;;;;;1552945;75;1504;-63
2023/06/01 08:33:31;;;;;;;;;;;24.00;40.40;;;;;;1538358;76;2073;-64
2023/06/01 08:35:34;;;;;;;;;;;24.00;40.40;;;;;;1538358;76;1346;-63
2023/06/01 08:37:36;;;;;;;;;;;24.00;40.40;;;;;;1540608;75;1251;-64
2023/06/01 08:39:38;;;;;;;;;;;24.00;40.40;;;;;;1550253;75;1341;-64
2023/06/01 08:41:40;;;;;;;;;;;24.00;40.40;;;;;;1560287;75;1320;-64
2023/06/01 08:43:42;;;;;;;;;;;24.00;40.40;;;;;;1553119;75;1935;-64
2023/06/01 08:45:46;;;;;;;;;;;24.00;40.50;;;;;;1554484;75;1458;-64
2023/06/01 08:47:48;;;;;;;;;;;24.00;40.40;;;;;;1559681;75;1660;-64
2023/06/01 08:49:50;;;;;;;;;;;24.00;40.30;;;;;;1550758;75;1058;-64
2023/06/01 08:51:52;;;;;;;;;;;24.00;40.10;;;;;;1547111;75;1220;-64
2023/06/01 08:53:54;;;;;;;;;;;23.90;40.10;;;;;;1560257;75;1518;-64
2023/06/01 08:55:56;;;;;;;;;;;23.90;40.20;;;;;;1557263;75;1073;-64
2023/06/01 08:57:58;;;;;;;;;;;23.90;40.30;;;;;;1558213;75;1415;-64
2023/06/01 09:00:00;;;;;;;;;;;24.00;40.30;;;;;;1557664;75;1551;-64
2023/06/01 09:02:02;;;;;;;;;;;24.00;40.30;;;;;;1540492;76;1349;-64
2023/06/01 09:04:04;;;;;;;;;;;23.90;40.30;;;;;;1538760;76;1916;-64
2023/06/01 09:06:06;;;;;;;;;;;24.00;40.30;;;;;;1535063;76;1160;-64
2023/06/01 09:08:08;;;;;;;;;;;24.00;40.30;;;;;;1541211;76;1351;-64
2023/06/01 09:10:11;;;;;;;;;;;24.00;40.40;;;;;;1547253;75;1498;-64
2023/06/01 09:12:17;;;;;;;;;;;24.00;40.30;;;;;;1563002;75;1276;-64
2023/06/01 09:14:22;;;;;;;;;;;24.00;40.40;;;;;;1546069;75;1527;-64
2023/06/01 09:16:26;;;;;;;;;;;24.00;40.30;;;;;;1564861;75;1437;-65
2023/06/01 09:18:28;;;;;;;;;;;23.90;40.40;;;;;;1554330;75;1153;-65
2023/06/01 09:20:31;;;;;;;;;;;23.90;40.40;;;;;;1558349;75;1275;-65
2023/06/01 09:22:41;;;;;;;;;;;24.00;40.40;;;;;;1558397;75;1243;-65
2023/06/01 09:24:45;;;;;;;;;;;23.90;40.40;;;;;;1557811;75;1912;-65
2023/06/01 09:26:49;;;;;;;;;;;23.90;40.40;;;;;;1558341;75;1500;-65
2023/06/01 09:29:01;;;;;;;;;;;23.90;40.40;;;;;;1556391;75;1478;-65
2023/06/01 09:31:02;;;;;;;;;;;24.00;40.40;;;;;;1555853;75;1093;-64
2023/06/01 09:33:09;;;;;;;;;;;23.90;40.40;;;;;;1556914;75;1266;-65
2023/06/01 09:35:11;;;;;;;;;;;24.00;40.40;;;;;;1553813;75;1274;-64
2023/06/01 09:37:13;;;;;;;;;;;23.90;40.50;;;;;;1551203;75;1177;-64
2023/06/01 09:39:16;;;;;;;;;;;24.00;40.50;;;;;;1563104;75;1124;-65
2023/06/01 09:41:20;;;;;;;;;;;23.90;40.40;;;;;;1560602;75;1349;-64
2023/06/01 09:43:21;;;;;;;;;;;24.00;40.30;;;;;;1546730;75;1505;-64
2023/06/01 09:45:23;;;;;;;;;;;24.00;40.20;;;;;;1539728;76;1927;-65
2023/06/01 09:47:27;;;;;;;;;;;23.90;40.20;;;;;;1535076;76;1501;-65
2023/06/01 09:49:30;;;;;;;;;;;23.90;40.20;;;;;;1533491;76;1289;-65
2023/06/01 09:51:32;;;;;;;;;;;23.90;40.10;;;;;;1535534;76;1317;-65
2023/06/01 09:53:43;;;;;;;;;;;23.90;40.10;;;;;;1537949;76;1135;-65
2023/06/01 09:56:00;;;;;;;;;;;23.90;40.00;;;;;;1540102;76;1135;-65
2023/06/01 09:58:19;;;;;;;;;;;23.90;40.00;;;;;;1535652;76;1478;-65
2023/06/01 10:00:30;;;;;;;;;;;23.90;40.10;;;;;;1539585;76;1147;-64
2023/06/01 10:02:27;;;;;;;;;;;23.90;40.20;;;;;;1535440;76;1509;-64
2023/06/01 10:04:29;;;;;;;;;;;23.90;40.20;;;;;;1542257;76;1926;-64
2023/06/01 10:06:33;;;;;;;;;;;23.90;40.20;;;;;;1533589;76;1273;-65
2023/06/01 10:08:35;;;;;;;;;;;23.90;40.30;;;;;;1535653;76;1820;-65
2023/06/01 10:10:37;;;;;;;;;;;23.90;40.30;;;;;;1539664;76;1499;-65
2023/06/01 10:12:39;;;;;;;;;;;23.90;40.40;;;;;;1539444;76;1507;-66
2023/06/01 10:14:41;;;;;;;;;;;23.90;40.50;;;;;;1554256;75;1297;-65
2023/06/01 10:16:43;;;;;;;;;;;23.90;40.50;;;;;;1537402;75;1526;-65
2023/06/01 10:18:45;;;;;;;;;;;23.80;40.30;;;;;;1533462;76;1260;-65
2023/06/01 10:20:47;;;;;;;;;;;23.90;40.40;;;;;;1538675;76;1239;-65
2023/06/01 10:22:48;;;;;;;;;;;23.90;40.40;;;;;;1540273;76;1061;-65
2023/06/01 10:24:50;;;;;;;;;;;23.90;40.40;;;;;;1532608;76;1944;-65
2023/06/01 10:27:14;;;;;;;;;;;23.90;40.30;;;;;;1533475;76;1320;-65
2023/06/01 10:29:17;;;;;;;;;;;23.90;40.30;;;;;;1535772;76;1073;-65
2023/06/01 10:31:37;;;;;;;;;;;23.90;40.50;;;;;;1536236;76;1743;-65
2023/06/01 10:33:52;;;;;;;;;;;23.90;40.40;;;;;;1536916;76;1235;-65
2023/06/01 10:35:54;;;;;;;;;;;23.90;40.50;;;;;;1534559;76;1251;-65
2023/06/01 10:38:12;;;;;;;;;;;23.90;40.60;;;;;;1537797;76;1318;-64
2023/06/01 10:40:18;;;;;;;;;;;23.90;40.60;;;;;;1541028;76;1618;-65
2023/06/01 10:42:21;;;;;;;;;;;23.90;40.60;;;;;;1535682;76;1243;-64
2023/06/01 10:44:40;;;;;;;;;;;23.80;40.50;;;;;;1538463;76;1936;-65
2023/06/01 10:46:42;;;;;;;;;;;23.80;40.60;;;;;;1532368;76;1254;-65
2023/06/01 10:48:57;;;;;;;;;;;23.90;40.70;;;;;;1540972;76;1191;-64
2023/06/01 10:51:18;;;;;;;;;;;23.90;40.70;;;;;;1532474;76;1268;-65
2023/06/01 10:53:24;;;;;;;;;;;23.90;40.70;;;;;;1535072;76;1510;-65
2023/06/01 10:55:27;;;;;;;;;;;23.80;40.60;;;;;;1545470;76;1264;-65
2023/06/01 10:57:29;;;;;;;;;;;23.90;40.70;;;;;;1538035;76;1313;-65
2023/06/01 10:59:30;;;;;;;;;;;23.90;40.70;;;;;;1532224;76;1067;-65
2023/06/01 11:01:32;;;;;;;;;;;23.80;40.60;;;;;;1535665;76;1272;-65
2023/06/01 11:03:44;;;;;;;;;;;23.90;40.70;;;;;;1539028;76;1308;-64
2023/06/01 11:05:50;;;;;;;;;;;23.90;40.70;;;;;;1531428;76;1940;-65
2023/06/01 11:07:52;;;;;;;;;;;23.90;40.70;;;;;;1548260;75;1474;-65
2023/06/01 11:09:55;;;;;;;;;;;23.90;40.60;;;;;;1560488;75;1357;-65
2023/06/01 11:11:58;;;;;;;;;;;23.80;40.60;;;;;;1557729;75;1299;-65
2023/06/01 11:14:07;;;;;;;;;;;23.90;40.60;;;;;;1558561;75;1301;-65
2023/06/01 11:16:12;;;;;;;;;;;23.90;40.60;;;;;;1565605;75;1516;-65
2023/06/01 11:18:19;;;;;;;;;;;23.90;40.70;;;;;;1561953;75;1368;-65
2023/06/01 11:20:29;;;;;;;;;;;23.90;40.60;;;;;;1550362;75;1547;-64
2023/06/01 11:22:24;;;;;;;;;;;23.90;40.70;;;;;;1566630;75;1611;-65
2023/06/01 11:24:26;;;;;;;;;;;23.90;40.70;;;;;;1570249;75;1503;-65
2023/06/01 11:26:32;;;;;;;;;;;23.90;40.80;;;;;;1563360;75;1924;-65
2023/06/01 11:28:35;;;;;;;;;;;23.90;40.80;;;;;;1565363;75;1188;-65
2023/06/01 11:30:36;;;;;;;;;;;23.90;40.70;;;;;;1566393;75;1264;-65
2023/06/01 11:32:39;;;;;;;;;;;23.90;40.60;;;;;;1567795;75;1353;-65
2023/06/01 11:34:43;;;;;;;;;;;23.90;40.70;;;;;;1561435;75;1465;-65
2023/06/01 11:36:48;;;;;;;;;;;23.90;40.70;;;;;;1564195;75;1995;-65
2023/06/01 11:38:51;;;;;;;;;;;23.90;40.70;;;;;;1572813;75;1514;-65
2023/06/01 11:41:00;;;;;;;;;;;23.90;40.60;;;;;;1560872;75;1521;-65
2023/06/01 11:43:02;;;;;;;;;;;23.90;40.60;;;;;;1539370;76;1079;-65
2023/06/01 11:45:04;;;;;;;;;;;23.90;40.50;;;;;;1544635;76;1932;-65
2023/06/01 11:47:07;;;;;;;;;;;23.90;40.50;;;;;;1541745;76;1176;-65
2023/06/01 11:49:10;;;;;;;;;;;23.90;40.50;;;;;;1550614;75;1472;-65
2023/06/01 11:51:11;;;;;;;;;;;23.80;40.50;;;;;;1555966;75;1443;-65
2023/06/01 11:53:13;;;;;;;;;;;23.90;40.60;;;;;;1521055;77;1336;-65
2023/06/01 11:55:15;;;;;;;;;;;23.90;40.50;;;;;;1554873;75;1426;-65
2023/06/01 11:57:19;;;;;;;;;;;23.90;40.50;;;;;;1555595;75;1271;-65
2023/06/01 11:59:21;;;;;;;;;;;23.90;40.50;;;;;;1522920;76;1814;-65
2023/06/01 12:01:23;;;;;;;;;;;23.90;40.50;;;;;;1531637;76;1322;-65
2023/06/01 12:03:25;;;;;;;;;;;24.00;40.40;;;;;;1536132;76;1503;-65
2023/06/01 12:05:26;;;;;;;;;;;24.00;40.20;;;;;;1537215;76;1940;-65
2023/06/01 12:07:31;;;;;;;;;;;24.00;40.20;;;;;;1532135;76;1418;-66
2023/06/01 12:09:33;;;;;;;;;;;24.00;40.20;;;;;;1533384;76;1347;-65
2023/06/01 12:11:36;;;;;;;;;;;24.00;40.20;;;;;;1542220;76;1268;-65